Time;durP1;ratioP1;P1;durP2;ratioP2;P2;SDS_P1;SDS_P2;PMS_P1;PMS_P2;Temp;Humidity;BMP_temperature;BMP_pressure;BME280_temperature;BME280_humidity;BME280_pressure;Samples;Min_cycle;Max_cycle;Signal;HPM_P1;HPM_P2
2023/08/26 00:01:54;;;;;;;11.10;9.35;;;17.70;99.90;;;;;;4849087;29;20131;-77
2023/08/26 00:04:21;;;;;;;11.68;9.07;;;17.70;99.90;;;;;;4879868;29;20084;-79
2023/08/26 00:06:47;;;;;;;11.45;9.32;;;17.60;99.90;;;;;;4896134;29;20064;-78
2023/08/26 00:09:13;;;;;;;14.07;9.55;;;17.60;99.90;;;;;;4865171;29;20108;-78
2023/08/26 00:11:41;;;;;;;12.07;9.20;;;17.50;99.90;;;;;;4879649;29;20045;-77
2023/08/26 00:14:07;;;;;;;12.38;9.38;;;17.50;99.90;;;;;;4879166;29;20061;-77
2023/08/26 00:16:32;;;;;;;13.55;10.05;;;17.40;99.90;;;;;;4879271;29;20056;-77
2023/08/26 00:19:02;;;;;;;13.55;9.38;;;17.40;99.90;;;;;;4866994;29;20049;-77
2023/08/26 00:21:28;;;;;;;12.15;9.45;;;17.40;99.90;;;;;;4864633;29;20041;-77
2023/08/26 00:23:55;;;;;;;14.25;8.70;;;17.30;99.90;;;;;;4848921;29;20045;-78
2023/08/26 00:26:21;;;;;;;13.07;9.15;;;17.30;99.90;;;;;;4878598;29;20053;-77
2023/08/26 00:28:47;;;;;;;12.35;9.20;;;17.20;99.90;;;;;;4885855;29;20092;-76
2023/08/26 00:31:13;;;;;;;10.85;8.50;;;17.30;99.90;;;;;;4864470;29;20088;-77
2023/08/26 00:33:38;;;;;;;12.82;8.02;;;17.30;99.90;;;;;;4880944;29;20472;-77
2023/08/26 00:36:04;;;;;;;12.85;8.63;;;17.30;99.90;;;;;;4879815;29;20377;-78
2023/08/26 00:38:30;;;;;;;10.27;8.35;;;17.20;99.90;;;;;;4879438;29;20265;-77
2023/08/26 00:40:56;;;;;;;11.05;7.70;;;17.20;99.90;;;;;;4879913;29;20067;-78
2023/08/26 00:43:22;;;;;;;11.98;8.10;;;17.20;99.90;;;;;;4880066;29;20045;-77
2023/08/26 00:45:50;;;;;;;10.48;7.93;;;17.10;99.90;;;;;;4878600;29;20045;-77
2023/08/26 00:48:18;;;;;;;12.73;8.85;;;17.10;99.90;;;;;;4878588;29;20518;-76
2023/08/26 00:50:46;;;;;;;9.15;7.95;;;17.10;99.90;;;;;;4887713;29;20060;-78
2023/08/26 00:53:14;;;;;;;9.95;8.27;;;17.10;99.90;;;;;;4878565;29;20053;-77
2023/08/26 00:55:40;;;;;;;9.95;7.22;;;17.10;99.90;;;;;;4878521;29;20504;-77
2023/08/26 00:58:06;;;;;;;9.48;7.18;;;17.10;99.90;;;;;;4878611;29;20100;-78
2023/08/26 01:00:35;;;;;;;10.10;7.57;;;17.10;99.90;;;;;;4887218;29;20120;-77
2023/08/26 01:03:04;;;;;;;11.80;7.18;;;17.10;99.90;;;;;;4895261;29;20052;-76
2023/08/26 01:05:30;;;;;;;16.60;7.60;;;17.10;99.90;;;;;;4869171;29;20052;-78
2023/08/26 01:07:57;;;;;;;10.15;6.90;;;17.00;99.90;;;;;;4882838;29;20048;-76
2023/08/26 01:10:46;;;;;;;12.75;7.65;;;16.90;99.90;;;;;;4881285;29;20512;-76
2023/08/26 01:13:14;;;;;;;9.18;6.57;;;16.90;99.90;;;;;;4886761;29;20087;-76
2023/08/26 01:15:44;;;;;;;11.50;6.55;;;16.90;99.90;;;;;;4890071;29;20057;-77
2023/08/26 01:18:13;;;;;;;9.60;7.00;;;16.80;99.90;;;;;;4881337;29;20059;-76
2023/08/26 01:20:41;;;;;;;11.32;6.85;;;16.80;99.90;;;;;;4880487;29;20131;-76
2023/08/26 01:23:18;;;;;;;9.80;6.72;;;16.80;99.90;;;;;;4863564;29;20460;-76
2023/08/26 01:25:45;;;;;;;10.60;7.18;;;16.80;99.90;;;;;;4878974;29;20399;-77
2023/08/26 01:28:10;;;;;;;12.43;6.93;;;16.80;99.90;;;;;;4879855;29;20405;-77
2023/08/26 01:30:36;;;;;;;9.10;6.72;;;16.80;99.90;;;;;;4845742;29;20075;-77
2023/08/26 01:33:10;;;;;;;11.70;7.07;;;16.70;99.90;;;;;;4861557;29;20053;-77
2023/08/26 01:35:40;;;;;;;8.35;6.72;;;16.70;99.90;;;;;;4861757;29;20053;-76
2023/08/26 01:38:08;;;;;;;12.40;6.30;;;16.70;99.90;;;;;;4885690;29;20395;-77
2023/08/26 01:40:34;;;;;;;9.88;6.72;;;16.70;99.90;;;;;;4880426;29;20052;-76
2023/08/26 01:43:02;;;;;;;9.63;6.07;;;16.70;99.90;;;;;;4888691;29;20044;-78
2023/08/26 01:45:28;;;;;;;8.77;6.18;;;16.70;99.90;;;;;;4868675;29;20474;-76
2023/08/26 01:47:54;;;;;;;9.35;6.53;;;16.70;99.90;;;;;;4852365;29;20127;-78
2023/08/26 01:50:20;;;;;;;9.98;6.13;;;16.60;99.90;;;;;;4870146;29;20411;-77
2023/08/26 01:52:45;;;;;;;11.80;7.18;;;16.60;99.90;;;;;;4886295;29;20151;-77
2023/08/26 01:55:12;;;;;;;12.68;6.70;;;16.60;99.90;;;;;;4845411;29;20556;-77
2023/08/26 01:57:37;;;;;;;10.15;6.35;;;16.60;99.90;;;;;;4847657;29;20048;-77
2023/08/26 02:00:05;;;;;;;9.30;6.65;;;16.50;99.90;;;;;;4890378;29;20539;-78
2023/08/26 02:02:30;;;;;;;9.88;6.22;;;16.50;99.90;;;;;;4882171;29;20076;-78
2023/08/26 02:04:56;;;;;;;8.45;6.25;;;16.50;99.90;;;;;;4866320;29;20083;-78
2023/08/26 02:07:22;;;;;;;9.20;6.72;;;16.50;99.90;;;;;;4888866;29;20538;-77
2023/08/26 02:09:48;;;;;;;8.52;6.80;;;16.50;99.90;;;;;;4869888;29;20076;-77
2023/08/26 02:12:13;;;;;;;9.32;5.88;;;16.40;99.90;;;;;;4881366;29;20055;-78
2023/08/26 02:14:39;;;;;;;8.60;6.25;;;16.40;99.90;;;;;;4896609;29;20088;-77
2023/08/26 02:17:05;;;;;;;9.23;5.72;;;16.30;99.90;;;;;;4895951;29;20060;-77
2023/08/26 02:19:30;;;;;;;8.82;5.70;;;16.30;99.90;;;;;;4874237;29;20049;-77
2023/08/26 02:21:56;;;;;;;10.05;6.50;;;16.30;99.90;;;;;;4870306;29;20049;-77
2023/08/26 02:24:22;;;;;;;9.13;5.88;;;16.30;99.90;;;;;;4885230;29;20048;-77
2023/08/26 02:26:48;;;;;;;9.32;6.03;;;16.20;99.90;;;;;;4880873;29;20406;-77
2023/08/26 02:29:13;;;;;;;8.93;5.78;;;16.20;99.90;;;;;;4881520;29;20410;-77
2023/08/26 02:31:39;;;;;;;10.48;6.53;;;16.20;99.90;;;;;;4864477;29;20060;-76
2023/08/26 02:34:05;;;;;;;10.77;5.75;;;16.20;99.90;;;;;;4882229;29;20052;-78
2023/08/26 02:36:30;;;;;;;9.32;6.22;;;16.10;99.90;;;;;;4869281;29;20048;-76
2023/08/26 02:38:56;;;;;;;7.70;5.25;;;16.10;99.90;;;;;;4900596;29;20072;-77
2023/08/26 02:41:22;;;;;;;8.85;6.00;;;16.10;99.90;;;;;;4881243;29;20100;-78
2023/08/26 02:43:47;;;;;;;11.52;5.72;;;16.10;99.90;;;;;;4895037;29;20060;-78
2023/08/26 02:46:13;;;;;;;10.48;5.82;;;16.10;99.90;;;;;;4884297;29;20101;-77
2023/08/26 02:48:39;;;;;;;7.97;5.88;;;16.00;99.90;;;;;;4884590;29;20120;-77
2023/08/26 02:51:04;;;;;;;9.75;6.13;;;16.00;99.90;;;;;;4850444;29;20084;-76
2023/08/26 02:53:33;;;;;;;8.80;5.20;;;16.00;99.90;;;;;;4889723;29;20045;-76
2023/08/26 02:56:00;;;;;;;10.43;5.95;;;15.90;99.90;;;;;;4895194;29;20121;-77
2023/08/26 02:58:26;;;;;;;8.75;5.82;;;15.90;99.90;;;;;;4901006;29;20061;-77
2023/08/26 03:00:52;;;;;;;15.95;6.03;;;15.90;99.90;;;;;;4873786;29;20060;-76
2023/08/26 03:03:18;;;;;;;7.75;5.53;;;15.80;99.90;;;;;;4856588;29;20045;-77
2023/08/26 03:05:43;;;;;;;8.23;5.20;;;15.80;99.90;;;;;;4868534;29;20108;-76
2023/08/26 03:08:09;;;;;;;6.82;5.32;;;15.80;99.90;;;;;;4899749;29;20049;-77
2023/08/26 03:10:35;;;;;;;8.85;4.93;;;15.80;99.90;;;;;;4899001;29;20055;-76
2023/08/26 03:13:00;;;;;;;6.65;4.88;;;15.70;99.90;;;;;;4886923;29;20077;-78
2023/08/26 03:15:27;;;;;;;9.23;4.90;;;15.70;99.90;;;;;;4882218;29;20092;-77
2023/08/26 03:17:53;;;;;;;7.00;4.60;;;15.70;99.90;;;;;;4868759;29;20049;-77
2023/08/26 03:20:19;;;;;;;6.95;4.00;;;15.70;99.90;;;;;;4900685;29;20104;-77
2023/08/26 03:22:45;;;;;;;9.63;4.60;;;15.60;99.90;;;;;;4869180;29;20059;-77
2023/08/26 03:25:11;;;;;;;7.55;3.88;;;15.60;99.90;;;;;;4878568;29;20063;-76
2023/08/26 03:27:37;;;;;;;9.57;4.43;;;15.50;99.90;;;;;;4867716;29;20057;-76
2023/08/26 03:30:03;;;;;;;7.85;4.22;;;15.50;99.90;;;;;;4899855;29;20055;-77
2023/08/26 03:32:29;;;;;;;7.45;4.35;;;15.50;99.90;;;;;;4897605;29;20089;-77
2023/08/26 03:34:55;;;;;;;7.30;4.22;;;15.50;99.90;;;;;;4889704;29;20056;-76
2023/08/26 03:37:20;;;;;;;8.18;3.80;;;15.50;99.90;;;;;;4872119;29;20108;-77
2023/08/26 03:39:46;;;;;;;8.05;4.13;;;15.50;99.90;;;;;;4902638;29;20108;-77
2023/08/26 03:42:12;;;;;;;10.32;3.90;;;15.40;99.90;;;;;;4883873;29;20059;-77
2023/08/26 03:44:37;;;;;;;5.70;4.03;;;15.40;99.90;;;;;;4888878;29;20044;-77
2023/08/26 03:47:03;;;;;;;5.68;4.13;;;15.40;99.90;;;;;;4895317;29;20052;-77
2023/08/26 03:49:30;;;;;;;7.07;3.80;;;15.40;99.90;;;;;;4898542;29;20533;-78
2023/08/26 03:51:56;;;;;;;8.35;3.92;;;15.40;99.90;;;;;;4899437;29;20095;-76
2023/08/26 03:54:21;;;;;;;5.82;3.80;;;15.40;99.90;;;;;;4892355;29;20045;-77
2023/08/26 03:56:47;;;;;;;5.53;3.30;;;15.40;99.90;;;;;;4883496;29;20200;-77
2023/08/26 03:59:13;;;;;;;10.63;3.78;;;15.30;99.90;;;;;;4895524;29;20048;-78
2023/08/26 04:01:39;;;;;;;7.35;4.05;;;15.30;99.90;;;;;;4882913;29;20514;-75
2023/08/26 04:04:05;;;;;;;6.60;3.70;;;15.30;99.90;;;;;;4898606;29;20048;-77
2023/08/26 04:06:31;;;;;;;8.70;3.47;;;15.30;99.90;;;;;;4885937;29;20045;-77
2023/08/26 04:08:57;;;;;;;5.35;3.22;;;15.30;99.90;;;;;;4898103;29;20127;-77
2023/08/26 04:11:23;;;;;;;6.85;3.70;;;15.30;99.90;;;;;;4885490;29;20048;-78
2023/08/26 04:13:48;;;;;;;9.20;4.20;;;15.30;99.90;;;;;;4896629;29;20112;-77
2023/08/26 04:16:19;;;;;;;6.68;4.10;;;15.30;99.90;;;;;;4886297;29;20056;-77
2023/08/26 04:18:45;;;;;;;6.68;4.40;;;15.40;99.90;;;;;;4898537;29;20419;-77
2023/08/26 04:21:10;;;;;;;5.30;3.85;;;15.40;99.90;;;;;;4868510;29;20052;-77
2023/08/26 04:23:36;;;;;;;6.20;4.20;;;15.40;99.90;;;;;;4891584;29;20072;-78
2023/08/26 04:26:05;;;;;;;7.53;4.22;;;15.40;99.90;;;;;;4894822;29;20149;-77
2023/08/26 04:28:31;;;;;;;6.70;4.40;;;15.40;99.90;;;;;;4880150;29;20040;-76
2023/08/26 04:30:58;;;;;;;6.95;4.22;;;15.40;99.90;;;;;;4882271;29;20064;-77
2023/08/26 04:33:24;;;;;;;6.80;4.38;;;15.40;99.90;;;;;;4883068;29;20127;-76
2023/08/26 04:35:50;;;;;;;8.38;4.45;;;15.40;99.90;;;;;;4895218;29;20136;-76
2023/08/26 04:38:16;;;;;;;6.95;4.43;;;15.40;99.90;;;;;;4862358;29;20104;-77
2023/08/26 04:40:41;;;;;;;7.72;4.15;;;15.50;99.90;;;;;;4867763;29;20100;-76
2023/08/26 04:43:10;;;;;;;6.88;4.18;;;15.50;99.90;;;;;;4867594;29;20048;-78
2023/08/26 04:45:37;;;;;;;6.18;3.97;;;15.50;99.90;;;;;;4897892;29;20444;-77
2023/08/26 04:48:07;;;;;;;7.38;4.18;;;15.50;99.90;;;;;;4889086;29;20092;-77
2023/08/26 04:50:34;;;;;;;6.07;3.95;;;15.50;99.90;;;;;;4894968;29;20053;-77
2023/08/26 04:53:01;;;;;;;7.03;4.60;;;15.50;99.90;;;;;;4897928;29;20490;-78
2023/08/26 04:55:26;;;;;;;7.20;4.13;;;15.50;99.90;;;;;;4898312;29;20071;-76
2023/08/26 04:57:53;;;;;;;7.15;4.60;;;15.60;99.90;;;;;;4879157;29;20057;-76
2023/08/26 05:00:18;;;;;;;9.32;4.88;;;15.60;99.90;;;;;;4893243;29;20053;-76
2023/08/26 05:02:44;;;;;;;7.50;4.50;;;15.60;99.90;;;;;;4868647;29;20421;-77
2023/08/26 05:05:10;;;;;;;7.88;4.20;;;15.60;99.90;;;;;;4862930;29;20080;-77
2023/08/26 05:07:36;;;;;;;6.00;4.65;;;15.70;99.90;;;;;;4864999;29;20093;-77
2023/08/26 05:10:07;;;;;;;7.50;4.57;;;15.70;99.90;;;;;;4879180;29;20087;-77
2023/08/26 05:12:33;;;;;;;7.22;4.70;;;15.70;99.90;;;;;;4878772;29;20535;-76
2023/08/26 05:14:58;;;;;;;10.05;4.90;;;15.70;99.90;;;;;;4862774;29;20084;-76
2023/08/26 05:17:24;;;;;;;5.65;4.45;;;15.70;99.90;;;;;;4880573;29;20101;-78
2023/08/26 05:19:51;;;;;;;7.60;4.25;;;15.70;99.90;;;;;;4882557;29;20049;-76
2023/08/26 05:22:17;;;;;;;7.18;4.60;;;15.80;99.90;;;;;;4879623;29;20063;-77
2023/08/26 05:24:43;;;;;;;6.40;4.10;;;15.80;99.90;;;;;;4878735;29;20049;-76
2023/08/26 05:27:08;;;;;;;7.65;4.65;;;15.80;99.90;;;;;;4882291;29;20386;-77
2023/08/26 05:29:34;;;;;;;7.63;4.63;;;15.80;99.90;;;;;;4876492;29;20124;-77
2023/08/26 05:32:00;;;;;;;8.13;4.25;;;15.90;99.90;;;;;;4862902;29;20177;-77
2023/08/26 05:34:25;;;;;;;7.30;4.20;;;16.00;99.90;;;;;;4879246;29;20067;-77
2023/08/26 05:36:51;;;;;;;7.72;4.13;;;16.00;99.90;;;;;;4863739;29;20105;-76
2023/08/26 05:39:17;;;;;;;8.10;4.10;;;16.10;99.90;;;;;;4864090;29;20491;-77
2023/08/26 05:41:43;;;;;;;8.10;4.00;;;16.10;99.90;;;;;;4880835;29;20052;-76
2023/08/26 05:44:09;;;;;;;7.30;4.15;;;16.10;99.90;;;;;;4862489;29;20083;-76
2023/08/26 05:46:34;;;;;;;10.70;4.30;;;16.10;99.90;;;;;;4860508;29;20634;-78
2023/08/26 05:49:00;;;;;;;7.22;4.28;;;16.10;99.90;;;;;;4868891;29;20095;-76
2023/08/26 05:51:27;;;;;;;5.75;4.30;;;16.10;99.90;;;;;;4875818;29;20076;-77
2023/08/26 05:53:53;;;;;;;7.22;4.50;;;16.10;99.90;;;;;;4867278;29;20060;-76
2023/08/26 05:56:19;;;;;;;6.63;4.30;;;16.10;99.90;;;;;;4894964;29;20109;-77
2023/08/26 05:58:45;;;;;;;8.32;4.80;;;16.10;99.90;;;;;;4881794;29;20053;-77
2023/08/26 06:01:10;;;;;;;7.60;4.35;;;16.10;99.90;;;;;;4874218;29;20101;-76
2023/08/26 06:03:36;;;;;;;7.88;4.63;;;16.10;99.90;;;;;;4867461;29;20136;-76
2023/08/26 06:06:03;;;;;;;7.15;4.35;;;16.00;99.90;;;;;;4874995;29;20106;-76
2023/08/26 06:08:29;;;;;;;5.88;3.70;;;16.10;99.90;;;;;;4871664;29;20049;-76
2023/08/26 06:10:55;;;;;;;9.05;4.47;;;16.10;99.90;;;;;;4884002;29;20136;-76
2023/08/26 06:13:22;;;;;;;5.70;3.97;;;16.10;99.90;;;;;;4877039;29;20071;-76
2023/08/26 06:15:57;;;;;;;6.88;4.65;;;16.10;99.90;;;;;;4878642;29;20140;-76
2023/08/26 06:18:23;;;;;;;6.13;4.07;;;16.10;99.90;;;;;;4879566;29;20141;-77
2023/08/26 06:20:50;;;;;;;8.90;3.85;;;16.10;99.90;;;;;;4883901;29;20043;-77
2023/08/26 06:23:20;;;;;;;6.03;3.83;;;16.10;99.90;;;;;;4866278;29;20137;-76
2023/08/26 06:25:52;;;;;;;8.02;4.10;;;16.00;99.90;;;;;;4874499;29;20045;-77
2023/08/26 06:28:18;;;;;;;6.07;3.53;;;16.10;99.90;;;;;;4877920;29;20049;-76
2023/08/26 06:30:44;;;;;;;5.70;3.85;;;16.10;99.90;;;;;;4880495;29;20048;-77
2023/08/26 06:33:09;;;;;;;6.15;3.63;;;16.10;99.90;;;;;;4877242;29;20500;-76
2023/08/26 06:35:35;;;;;;;6.63;4.13;;;16.10;99.90;;;;;;4879011;29;20112;-76
2023/08/26 06:38:01;;;;;;;4.25;3.55;;;16.00;99.90;;;;;;4884368;29;20521;-76
2023/08/26 06:40:30;;;;;;;7.78;4.10;;;16.00;99.90;;;;;;4887962;29;20053;-76
2023/08/26 06:42:57;;;;;;;5.93;3.72;;;16.00;99.90;;;;;;4877628;29;20154;-76
2023/08/26 06:45:23;;;;;;;6.22;3.63;;;16.00;99.90;;;;;;4843752;29;20050;-76
2023/08/26 06:47:48;;;;;;;6.95;3.50;;;16.00;99.90;;;;;;4861226;29;20048;-76
2023/08/26 06:50:14;;;;;;;6.53;3.50;;;15.90;99.90;;;;;;4877046;29;20056;-76
2023/08/26 06:52:40;;;;;;;5.50;3.80;;;16.00;99.90;;;;;;4863178;29;20053;-75
2023/08/26 06:55:08;;;;;;;7.15;3.60;;;16.00;99.90;;;;;;4877057;29;20080;-75
2023/08/26 06:57:35;;;;;;;6.70;3.63;;;16.00;99.90;;;;;;4877626;29;20511;-76
2023/08/26 07:00:05;;;;;;;7.22;3.50;;;15.90;99.90;;;;;;4867768;29;20053;-77
2023/08/26 07:02:31;;;;;;;7.90;3.28;;;15.90;99.90;;;;;;4882092;29;20157;-79
2023/08/26 07:04:57;;;;;;;4.88;3.38;;;16.00;99.90;;;;;;4863224;29;20084;-78
2023/08/26 07:07:22;;;;;;;6.88;3.40;;;16.00;99.90;;;;;;4845382;29;20458;-78
2023/08/26 07:09:48;;;;;;;7.28;3.47;;;16.00;99.90;;;;;;4877570;29;20045;-79
2023/08/26 07:12:14;;;;;;;4.53;3.13;;;16.00;99.90;;;;;;4877810;29;20433;-77
2023/08/26 07:14:40;;;;;;;6.85;3.33;;;15.90;99.90;;;;;;4876145;29;20087;-77
2023/08/26 07:17:07;;;;;;;6.90;3.53;;;16.00;99.90;;;;;;4891695;29;20069;-75
2023/08/26 07:19:32;;;;;;;5.63;3.33;;;16.00;99.90;;;;;;4879192;29;20403;-78
2023/08/26 07:21:58;;;;;;;7.10;3.53;;;16.00;99.90;;;;;;4880871;29;20060;-78
2023/08/26 07:24:24;;;;;;;7.88;3.42;;;16.00;99.90;;;;;;4888224;29;20349;-78
2023/08/26 07:26:50;;;;;;;5.03;3.30;;;16.10;99.90;;;;;;4881275;29;20045;-77
2023/08/26 07:29:15;;;;;;;4.80;3.10;;;16.20;99.90;;;;;;4871221;29;20080;-76
2023/08/26 07:31:41;;;;;;;5.00;3.10;;;16.30;99.90;;;;;;4880886;29;20080;-76
2023/08/26 07:34:08;;;;;;;4.75;3.22;;;16.60;99.90;;;;;;4875760;29;20140;-76
2023/08/26 07:36:37;;;;;;;4.28;3.05;;;17.40;99.90;;;;;;4865513;29;20049;-78
2023/08/26 07:39:03;;;;;;;5.20;3.40;;;18.40;99.90;;;;;;4881456;29;20099;-78
2023/08/26 07:41:28;;;;;;;6.03;3.40;;;19.30;99.90;;;;;;4864414;29;20550;-76
2023/08/26 07:43:54;;;;;;;5.00;3.85;;;20.10;99.90;;;;;;4883369;29;20137;-76
2023/08/26 07:46:22;;;;;;;8.38;5.30;;;20.80;99.90;;;;;;4880468;29;20118;-76
2023/08/26 07:48:49;;;;;;;8.40;5.50;;;21.40;99.90;;;;;;4865058;29;20049;-77
2023/08/26 07:51:15;;;;;;;8.93;6.43;;;21.90;99.90;;;;;;4887708;29;20048;-77
2023/08/26 07:53:41;;;;;;;10.65;7.18;;;22.20;99.90;;;;;;4897390;29;20084;-75
2023/08/26 07:56:08;;;;;;;10.35;7.38;;;22.60;99.90;;;;;;4900176;29;20099;-77
2023/08/26 07:58:34;;;;;;;11.77;8.15;;;22.80;99.90;;;;;;4858415;29;20425;-77
2023/08/26 08:00:59;;;;;;;11.35;7.90;;;23.10;99.90;;;;;;4889201;29;20148;-77
2023/08/26 08:03:25;;;;;;;8.57;7.60;;;23.40;99.90;;;;;;4899512;29;20188;-77
2023/08/26 08:05:51;;;;;;;12.90;8.65;;;23.50;99.90;;;;;;4895680;29;20395;-78
2023/08/26 08:08:16;;;;;;;12.18;8.80;;;23.20;99.90;;;;;;4877575;29;20045;-77
2023/08/26 08:10:43;;;;;;;13.35;8.68;;;22.60;99.90;;;;;;4890174;29;20054;-76
2023/08/26 08:13:09;;;;;;;10.63;8.60;;;22.30;99.90;;;;;;4884964;29;20057;-77
2023/08/26 08:15:35;;;;;;;11.68;8.77;;;22.50;99.90;;;;;;4892241;29;20065;-78
2023/08/26 08:18:02;;;;;;;15.25;9.20;;;23.00;99.90;;;;;;4890586;29;20086;-75
2023/08/26 08:20:30;;;;;;;12.40;9.05;;;23.50;99.90;;;;;;4867556;29;20124;-75
2023/08/26 08:22:56;;;;;;;10.80;9.38;;;23.60;99.90;;;;;;4861088;29;20082;-76
2023/08/26 08:25:22;;;;;;;12.38;8.75;;;23.50;99.90;;;;;;4880963;29;20041;-78
2023/08/26 08:27:48;;;;;;;12.38;9.35;;;23.20;99.90;;;;;;4871843;29;20053;-74
2023/08/26 08:30:14;;;;;;;11.70;9.30;;;23.40;99.90;;;;;;4879516;29;20044;-78
2023/08/26 08:32:40;;;;;;;9.18;7.90;;;23.90;99.90;;;;;;4883031;29;20500;-77
2023/08/26 08:35:06;;;;;;;11.68;8.02;;;24.60;99.90;;;;;;4879065;29;20087;-76
2023/08/26 08:37:33;;;;;;;13.18;8.23;;;25.00;99.90;;;;;;4882657;29;20055;-75
2023/08/26 08:39:59;;;;;;;12.27;8.02;;;25.40;99.90;;;;;;4877753;29;20555;-76
2023/08/26 08:42:25;;;;;;;11.02;7.93;;;25.70;99.90;;;;;;4886824;29;20479;-77
2023/08/26 08:44:51;;;;;;;10.68;7.45;;;26.00;99.90;;;;;;4894145;29;20480;-75
2023/08/26 08:47:17;;;;;;;13.23;7.25;;;26.30;99.90;;;;;;4893247;29;20499;-79
2023/08/26 08:49:43;;;;;;;7.82;6.97;;;26.30;99.90;;;;;;4887768;29;20443;-76
2023/08/26 08:52:10;;;;;;;10.88;7.43;;;26.40;99.90;;;;;;4875430;29;20100;-76
2023/08/26 08:54:36;;;;;;;8.75;6.45;;;26.40;99.90;;;;;;4877159;29;20049;-76
2023/08/26 08:57:03;;;;;;;8.75;5.93;;;26.40;99.90;;;;;;4880795;29;20120;-77
2023/08/26 08:59:32;;;;;;;7.13;5.75;;;26.50;99.90;;;;;;4879252;29;20056;-78
2023/08/26 09:01:59;;;;;;;8.18;5.72;;;26.60;99.90;;;;;;4879731;29;20037;-76
2023/08/26 09:04:25;;;;;;;10.93;5.72;;;26.80;99.90;;;;;;4881211;29;20089;-74
2023/08/26 09:06:53;;;;;;;8.00;5.50;;;26.90;99.90;;;;;;4878384;29;20110;-76
2023/08/26 09:09:20;;;;;;;7.03;5.25;;;27.00;99.90;;;;;;4879886;29;20063;-76
2023/08/26 09:11:47;;;;;;;9.05;5.50;;;27.30;99.90;;;;;;4867423;29;20113;-76
2023/08/26 09:14:13;;;;;;;9.50;5.80;;;27.60;99.90;;;;;;4887224;29;20092;-75
2023/08/26 09:16:40;;;;;;;7.15;5.60;;;27.80;99.50;;;;;;4878270;29;20392;-75
2023/08/26 09:19:07;;;;;;;9.93;5.82;;;27.70;98.70;;;;;;4863513;29;20049;-77
2023/08/26 09:21:33;;;;;;;8.98;5.10;;;27.00;98.70;;;;;;4878780;29;20056;-76
2023/08/26 09:24:00;;;;;;;7.80;4.95;;;26.50;99.90;;;;;;4878364;29;20045;-77
2023/08/26 09:26:26;;;;;;;8.05;4.97;;;26.10;99.90;;;;;;4877967;29;20409;-77
2023/08/26 09:28:52;;;;;;;8.57;5.28;;;26.10;99.90;;;;;;4844309;29;20397;-76
2023/08/26 09:31:20;;;;;;;8.10;5.47;;;25.80;99.90;;;;;;4869657;29;20056;-75
2023/08/26 09:34:01;;;;;;;7.63;5.20;;;25.70;99.90;;;;;;4876422;29;20711;-76
2023/08/26 09:36:41;;;;;;;6.72;4.40;;;25.90;99.90;;;;;;4868176;29;20438;-76
2023/08/26 09:39:14;;;;;;;8.02;5.35;;;25.70;99.90;;;;;;4873945;29;20427;-75
2023/08/26 09:41:45;;;;;;;7.85;5.18;;;25.50;99.90;;;;;;4886239;29;20045;-79
2023/08/26 09:44:17;;;;;;;8.27;5.10;;;25.20;99.90;;;;;;4877489;29;20139;-77
2023/08/26 09:46:44;;;;;;;6.95;5.35;;;24.90;99.90;;;;;;4880409;29;20052;-76
2023/08/26 09:49:14;;;;;;;7.57;4.82;;;24.80;99.90;;;;;;4876688;29;20056;-78
2023/08/26 09:51:50;;;;;;;7.53;5.47;;;24.50;99.90;;;;;;4885478;29;20049;-78
2023/08/26 09:54:18;;;;;;;6.22;4.80;;;24.30;99.90;;;;;;4887351;29;20048;-80
2023/08/26 09:56:47;;;;;;;8.15;5.18;;;24.10;99.90;;;;;;4878300;29;20484;-78
2023/08/26 09:59:13;;;;;;;7.78;4.97;;;24.00;99.90;;;;;;4861151;29;20353;-76
2023/08/26 10:01:40;;;;;;;8.15;5.53;;;23.90;99.90;;;;;;4871190;29;20055;-78
2023/08/26 10:04:11;;;;;;;9.15;5.35;;;24.00;99.90;;;;;;4875675;29;20386;-77
2023/08/26 10:06:58;;;;;;;7.25;5.15;;;24.00;99.90;;;;;;4878029;29;20060;-77
2023/08/26 10:09:43;;;;;;;9.18;4.55;;;24.00;99.90;;;;;;4879886;29;20055;-79
2023/08/26 10:12:36;;;;;;;9.80;5.30;;;23.90;99.90;;;;;;4877341;29;20045;-78
2023/08/26 10:15:03;;;;;;;7.43;5.15;;;23.60;99.90;;;;;;4870094;29;20172;-81
2023/08/26 10:17:31;;;;;;;9.50;4.82;;;23.40;99.90;;;;;;4879106;29;20045;-81
2023/08/26 10:19:57;;;;;;;8.00;5.03;;;23.20;99.90;;;;;;4878531;29;20120;-82
2023/08/26 10:22:24;;;;;;;7.35;4.30;;;22.90;99.90;;;;;;4883828;29;20077;-80
2023/08/26 10:24:50;;;;;;;8.68;3.42;;;22.60;99.90;;;;;;4880432;29;20097;-81
2023/08/26 10:27:17;;;;;;;5.72;2.45;;;22.20;99.90;;;;;;4865041;29;20044;-77
2023/08/26 10:29:43;;;;;;;4.47;1.98;;;21.90;99.90;;;;;;4886187;29;20053;-77
2023/08/26 10:32:20;;;;;;;3.65;1.70;;;21.50;99.90;;;;;;4858614;29;20052;-77
2023/08/26 10:35:01;;;;;;;3.85;1.65;;;21.00;99.90;;;;;;4872346;29;20045;-78
2023/08/26 10:37:28;;;;;;;5.18;2.00;;;20.60;99.90;;;;;;4882109;29;20051;-78
2023/08/26 10:39:54;;;;;;;4.75;1.60;;;20.40;99.90;;;;;;4879488;29;20063;-76
2023/08/26 10:42:21;;;;;;;6.72;1.85;;;20.20;99.90;;;;;;4881219;29;20045;-76
2023/08/26 10:44:53;;;;;;;6.05;1.73;;;20.00;99.90;;;;;;4882861;29;20041;-77
2023/08/26 10:47:45;;;;;;;3.30;1.40;;;19.80;99.90;;;;;;4883803;29;20053;-78
2023/08/26 10:50:25;;;;;;;4.32;1.50;;;19.60;99.90;;;;;;4870553;29;20056;-80
2023/08/26 10:52:53;;;;;;;4.15;1.58;;;19.50;99.90;;;;;;4897571;29;20056;-76
2023/08/26 10:55:26;;;;;;;4.03;1.50;;;19.40;99.90;;;;;;4890625;29;20105;-75
2023/08/26 10:58:11;;;;;;;6.60;1.70;;;19.40;99.90;;;;;;4871138;29;20136;-77
2023/08/26 11:01:04;;;;;;;4.43;1.60;;;19.40;99.90;;;;;;4883361;29;20108;-76
2023/08/26 11:03:31;;;;;;;3.05;1.50;;;19.40;99.90;;;;;;4867579;29;20571;-76
2023/08/26 11:06:02;;;;;;;3.10;1.52;;;19.50;99.90;;;;;;4881920;29;20057;-76
2023/08/26 11:08:28;;;;;;;3.20;1.50;;;19.60;99.90;;;;;;4881364;29;20119;-75
2023/08/26 11:10:54;;;;;;;3.70;1.30;;;19.70;99.90;;;;;;4882029;29;20089;-74
2023/08/26 11:13:22;;;;;;;2.70;1.45;;;19.90;99.90;;;;;;4876014;29;20045;-74
2023/08/26 11:15:49;;;;;;;3.42;1.58;;;20.10;99.90;;;;;;4890054;29;20069;-74
2023/08/26 11:18:16;;;;;;;2.75;1.45;;;20.30;99.90;;;;;;4887275;29;20057;-75
2023/08/26 11:20:44;;;;;;;2.75;1.70;;;20.50;99.90;;;;;;4869174;29;20064;-76
2023/08/26 11:23:10;;;;;;;2.70;1.60;;;20.70;99.90;;;;;;4883386;29;20053;-76
2023/08/26 11:25:37;;;;;;;3.83;1.80;;;20.80;99.90;;;;;;4879900;29;20427;-75
2023/08/26 11:28:10;;;;;;;3.88;1.92;;;21.00;99.90;;;;;;4885801;29;20530;-75
2023/08/26 11:30:45;;;;;;;3.80;1.77;;;21.10;99.90;;;;;;4881328;29;20385;-75
2023/08/26 11:33:16;;;;;;;4.78;2.25;;;21.20;99.90;;;;;;4872655;29;20058;-75
2023/08/26 11:35:47;;;;;;;3.85;2.13;;;21.30;99.90;;;;;;4870110;29;20072;-75
2023/08/26 11:38:14;;;;;;;5.07;2.50;;;21.50;99.90;;;;;;4881291;29;20048;-76
2023/08/26 11:40:40;;;;;;;5.10;2.55;;;21.70;99.90;;;;;;4883398;29;20383;-78
2023/08/26 11:43:13;;;;;;;4.90;2.55;;;21.90;99.90;;;;;;4880986;29;20060;-76
2023/08/26 11:45:42;;;;;;;5.18;2.80;;;22.10;99.90;;;;;;4881708;29;20376;-78
2023/08/26 11:48:11;;;;;;;5.30;3.30;;;22.00;99.90;;;;;;4884336;29;20181;-75
2023/08/26 11:50:37;;;;;;;5.15;2.90;;;22.00;99.90;;;;;;4867300;29;20081;-74
2023/08/26 11:53:04;;;;;;;6.78;3.20;;;21.90;99.90;;;;;;4885401;29;20049;-81
2023/08/26 11:55:34;;;;;;;7.65;3.55;;;21.80;99.90;;;;;;4882898;29;20129;-76
2023/08/26 11:58:00;;;;;;;7.25;3.47;;;21.70;99.90;;;;;;4876836;29;20045;-76
2023/08/26 12:00:27;;;;;;;5.45;3.50;;;21.60;99.90;;;;;;4881677;29;20041;-77
2023/08/26 12:03:02;;;;;;;6.40;3.63;;;21.50;99.90;;;;;;4886651;29;20041;-78
2023/08/26 12:05:39;;;;;;;5.10;3.35;;;21.40;99.90;;;;;;4862699;29;20472;-77
2023/08/26 12:08:05;;;;;;;5.57;3.80;;;21.30;99.90;;;;;;4880323;29;20108;-77
2023/08/26 12:10:31;;;;;;;5.00;3.90;;;21.30;99.90;;;;;;4880181;29;20048;-77
2023/08/26 12:13:04;;;;;;;8.35;4.10;;;21.40;99.90;;;;;;4878267;29;20045;-83
2023/08/26 12:15:30;;;;;;;6.40;4.07;;;21.50;99.90;;;;;;4864246;29;20068;-81
2023/08/26 12:17:56;;;;;;;8.52;4.30;;;21.60;99.90;;;;;;4880699;29;20045;-85
2023/08/26 12:20:30;;;;;;;7.30;3.90;;;21.60;99.90;;;;;;4881104;29;20064;-81
2023/08/26 12:23:00;;;;;;;7.88;4.30;;;21.60;99.90;;;;;;4880415;29;20132;-82
2023/08/26 12:25:28;;;;;;;6.40;4.43;;;21.60;99.90;;;;;;4890772;29;20056;-80
2023/08/26 12:28:13;;;;;;;6.78;3.95;;;21.70;99.90;;;;;;4880676;29;20048;-76
2023/08/26 12:30:45;;;;;;;6.40;3.67;;;21.90;99.90;;;;;;4877483;29;20045;-81
2023/08/26 12:33:11;;;;;;;7.50;3.67;;;22.00;99.90;;;;;;4897443;29;20059;-82
2023/08/26 12:35:38;;;;;;;4.80;3.00;;;22.10;99.90;;;;;;4879703;29;20081;-84
2023/08/26 12:38:04;;;;;;;3.35;2.00;;;22.20;99.90;;;;;;4866056;29;20057;-81
2023/08/26 12:40:34;;;;;;;2.60;1.70;;;22.20;99.90;;;;;;4882690;29;20076;-82
2023/08/26 12:43:01;;;;;;;4.15;1.40;;;22.20;99.90;;;;;;4872832;29;20445;-82
2023/08/26 12:45:27;;;;;;;3.63;1.80;;;22.20;99.90;;;;;;4894248;29;20459;-82
2023/08/26 12:47:53;;;;;;;2.85;1.58;;;22.20;99.90;;;;;;4899586;29;20056;-74